Time,TemperatureF,DewpointF,PressureIn,WindDirection,WindDirectionDegrees,WindSpeedMPH,WindSpeedGustMPH,Humidity,HourlyPrecipIn,Conditions,Clouds,dailyrainin,SoftwareType,DateUTC
2013-01-26 00:00:00,47.0,39.0,-100.00,North,-999,-999.0,-999.0,74,-99.99,,,-99.99,,2013-01-26 00:00:00,
2013-01-26 00:41:00,47.0,39.0,-100.00,North,-999,-999.0,-999.0,74,-99.99,,,-99.99,,2013-01-26 00:41:00,
2013-01-26 00:52:00,47.0,39.0,-100.00,North,-999,-999.0,-999.0,74,-99.99,,,-99.99,,2013-01-26 00:52:00,
2013-01-26 01:00:00,47.0,37.0,-100.00,North,-999,-999.0,-999.0,67,-99.99,,,-99.99,,2013-01-26 01:00:00,
2013-01-26 01:41:00,47.0,37.0,-100.00,North,-999,-999.0,-999.0,67,-99.99,,,-99.99,,2013-01-26 01:41:00,
2013-01-26 01:52:00,47.0,37.0,-100.00,North,-999,-999.0,-999.0,67,-99.99,,,-99.99,,2013-01-26 01:52:00,
2013-01-26 02:00:00,46.0,36.0,-100.00,North,-999,-999.0,-999.0,68,-99.99,,,-99.99,,2013-01-26 02:00:00,
2013-01-26 02:32:00,46.0,36.0,-100.00,North,-999,-999.0,-999.0,68,-99.99,,,-99.99,,2013-01-26 02:32:00,
2013-01-26 02:41:00,46.0,36.0,-100.00,North,-999,-999.0,-999.0,68,-99.99,,,-99.99,,2013-01-26 02:41:00,
2013-01-26 02:52:00,46.0,36.0,-100.00,North,-999,-999.0,-999.0,68,-99.99,,,-99.99,,2013-01-26 02:52:00,
2013-01-26 03:00:00,46.0,36.0,-100.00,North,-999,-999.0,-999.0,68,-99.99,,,-99.99,,2013-01-26 03:00:00,
2013-01-26 03:42:00,46.0,36.0,-100.00,North,-999,-999.0,-999.0,68,-99.99,,,-99.99,,2013-01-26 03:42:00,
2013-01-26 03:51:00,46.0,36.0,-100.00,North,-999,-999.0,-999.0,68,-99.99,,,-99.99,,2013-01-26 03:51:00,
2013-01-26 05:00:00,44.0,36.0,-100.00,North,-999,-999.0,-999.0,75,-99.99,,,-99.99,,2013-01-26 05:00:00,
2013-01-26 05:41:00,44.0,36.0,-100.00,North,-999,-999.0,-999.0,75,-99.99,,,-99.99,,2013-01-26 05:41:00,
2013-01-26 05:52:00,44.0,36.0,-100.00,North,-999,-999.0,-999.0,75,-99.99,,,-99.99,,2013-01-26 05:52:00,
2013-01-26 06:00:00,42.0,36.0,-100.00,North,-999,-999.0,-999.0,77,-99.99,,,-99.99,,2013-01-26 06:00:00,
2013-01-26 06:41:00,42.0,36.0,-100.00,North,-999,-999.0,-999.0,77,-99.99,,,-99.99,,2013-01-26 06:41:00,
2013-01-26 06:51:00,42.0,36.0,-100.00,North,-999,-999.0,-999.0,77,-99.99,,,-99.99,,2013-01-26 06:51:00,
2013-01-26 07:00:00,42.0,35.0,-100.00,North,-999,-999.0,-999.0,77,-99.99,,,-99.99,,2013-01-26 07:00:00,
2013-01-26 07:41:00,42.0,35.0,-100.00,North,-999,-999.0,-999.0,77,-99.99,,,-99.99,,2013-01-26 07:41:00,
2013-01-26 07:51:00,42.0,35.0,-100.00,North,-999,-999.0,-999.0,77,-99.99,,,-99.99,,2013-01-26 07:51:00,
2013-01-26 08:00:00,41.0,36.0,-100.00,North,-999,-999.0,-999.0,82,-99.99,,,-99.99,,2013-01-26 08:00:00,
2013-01-26 08:41:00,41.0,36.0,-100.00,North,-999,-999.0,-999.0,82,-99.99,,,-99.99,,2013-01-26 08:41:00,
2013-01-26 08:53:00,41.0,36.0,-100.00,North,-999,-999.0,-999.0,82,-99.99,,,-99.99,,2013-01-26 08:53:00,
2013-01-26 09:00:00,42.0,38.0,-100.00,North,-999,-999.0,-999.0,83,-99.99,,,-99.99,,2013-01-26 09:00:00,
2013-01-26 09:41:00,42.0,38.0,-100.00,North,-999,-999.0,-999.0,83,-99.99,,,-99.99,,2013-01-26 09:41:00,
2013-01-26 09:51:00,42.0,38.0,-100.00,North,-999,-999.0,-999.0,83,-99.99,,,-99.99,,2013-01-26 09:51:00,
2013-01-26 10:00:00,44.0,39.0,-100.00,North,-999,-999.0,-999.0,82,-99.99,,,-99.99,,2013-01-26 10:00:00,
2013-01-26 10:42:00,44.0,39.0,-100.00,North,-999,-999.0,-999.0,82,-99.99,,,-99.99,,2013-01-26 10:42:00,
2013-01-26 10:52:00,44.0,39.0,-100.00,North,-999,-999.0,-999.0,82,-99.99,,,-99.99,,2013-01-26 10:52:00,
2013-01-26 11:00:00,46.0,41.0,-100.00,North,-999,-999.0,-999.0,83,-99.99,,,-99.99,,2013-01-26 11:00:00,
2013-01-26 11:41:00,46.0,41.0,-100.00,North,-999,-999.0,-999.0,83,-99.99,,,-99.99,,2013-01-26 11:41:00,
2013-01-26 11:52:00,46.0,41.0,-100.00,North,-999,-999.0,-999.0,83,-99.99,,,-99.99,,2013-01-26 11:52:00,
2013-01-26 12:00:00,47.0,41.0,-100.00,North,-999,-999.0,-999.0,81,-99.99,,,-99.99,,2013-01-26 12:00:00,
2013-01-26 12:42:00,47.0,41.0,-100.00,North,-999,-999.0,-999.0,81,-99.99,,,-99.99,,2013-01-26 12:42:00,
2013-01-26 12:52:00,47.0,41.0,-100.00,North,-999,-999.0,-999.0,81,-99.99,,,-99.99,,2013-01-26 12:52:00,
2013-01-26 13:00:00,48.0,43.0,-100.00,North,-999,-999.0,-999.0,82,-99.99,,,-99.99,,2013-01-26 13:00:00,
2013-01-26 13:42:00,48.0,43.0,-100.00,North,-999,-999.0,-999.0,82,-99.99,,,-99.99,,2013-01-26 13:42:00,
2013-01-26 13:52:00,48.0,43.0,-100.00,North,-999,-999.0,-999.0,82,-99.99,,,-99.99,,2013-01-26 13:52:00,
2013-01-26 14:00:00,49.0,45.0,-100.00,North,-999,-999.0,-999.0,87,-99.99,,,-99.99,,2013-01-26 14:00:00,
2013-01-26 14:31:00,49.0,45.0,-100.00,North,-999,-999.0,-999.0,87,-99.99,,,-99.99,,2013-01-26 14:31:00,
2013-01-26 14:42:00,49.0,45.0,-100.00,North,-999,-999.0,-999.0,87,-99.99,,,-99.99,,2013-01-26 14:42:00,
2013-01-26 14:52:00,49.0,45.0,-100.00,North,-999,-999.0,-999.0,87,-99.99,,,-99.99,,2013-01-26 14:52:00,
2013-01-26 15:00:00,48.0,45.0,-100.00,North,-999,-999.0,-999.0,89,-99.99,,,-99.99,,2013-01-26 15:00:00,
2013-01-26 15:31:00,48.0,45.0,-100.00,North,-999,-999.0,-999.0,89,-99.99,,,-99.99,,2013-01-26 15:31:00,
2013-01-26 15:42:00,48.0,45.0,-100.00,North,-999,-999.0,-999.0,89,-99.99,,,-99.99,,2013-01-26 15:42:00,
2013-01-26 15:52:00,48.0,45.0,-100.00,North,-999,-999.0,-999.0,89,-99.99,,,-99.99,,2013-01-26 15:52:00,
2013-01-26 16:00:00,48.0,45.0,-100.00,North,-999,-999.0,-999.0,88,-99.99,,,-99.99,,2013-01-26 16:00:00,
2013-01-26 16:41:00,48.0,45.0,-100.00,North,-999,-999.0,-999.0,88,-99.99,,,-99.99,,2013-01-26 16:41:00,
2013-01-26 16:52:00,48.0,45.0,-100.00,North,-999,-999.0,-999.0,88,-99.99,,,-99.99,,2013-01-26 16:52:00,
2013-01-26 17:00:00,48.0,45.0,-100.00,North,-999,-999.0,-999.0,89,-99.99,,,-99.99,,2013-01-26 17:00:00,
2013-01-26 17:41:00,48.0,45.0,-100.00,North,-999,-999.0,-999.0,89,-99.99,,,-99.99,,2013-01-26 17:41:00,
2013-01-26 17:52:00,48.0,45.0,-100.00,North,-999,-999.0,-999.0,89,-99.99,,,-99.99,,2013-01-26 17:52:00,
2013-01-26 18:00:00,50.0,46.0,-100.00,North,-999,-999.0,-999.0,84,-99.99,,,-99.99,,2013-01-26 18:00:00,
2013-01-26 18:41:00,50.0,46.0,-100.00,North,-999,-999.0,-999.0,84,-99.99,,,-99.99,,2013-01-26 18:41:00,
2013-01-26 18:52:00,50.0,46.0,-100.00,North,-999,-999.0,-999.0,84,-99.99,,,-99.99,,2013-01-26 18:52:00,
2013-01-26 19:00:00,52.0,47.0,-100.00,North,-999,-999.0,-999.0,84,-99.99,,,-99.99,,2013-01-26 19:00:00,
2013-01-26 19:42:00,52.0,47.0,-100.00,North,-999,-999.0,-999.0,84,-99.99,,,-99.99,,2013-01-26 19:42:00,
2013-01-26 19:52:00,52.0,47.0,-100.00,North,-999,-999.0,-999.0,84,-99.99,,,-99.99,,2013-01-26 19:52:00,
2013-01-26 20:00:00,54.0,49.0,-100.00,North,-999,-999.0,-999.0,84,-99.99,,,-99.99,,2013-01-26 20:00:00,
2013-01-26 20:41:00,54.0,49.0,-100.00,North,-999,-999.0,-999.0,84,-99.99,,,-99.99,,2013-01-26 20:41:00,
2013-01-26 20:52:00,54.0,49.0,-100.00,North,-999,-999.0,-999.0,84,-99.99,,,-99.99,,2013-01-26 20:52:00,
2013-01-26 21:00:00,57.0,49.0,-100.00,North,-999,-999.0,-999.0,75,-99.99,,,-99.99,,2013-01-26 21:00:00,
2013-01-26 21:31:00,57.0,49.0,-100.00,North,-999,-999.0,-999.0,75,-99.99,,,-99.99,,2013-01-26 21:31:00,
2013-01-26 21:42:00,57.0,49.0,-100.00,North,-999,-999.0,-999.0,75,-99.99,,,-99.99,,2013-01-26 21:42:00,
2013-01-26 21:51:00,57.0,49.0,-100.00,North,-999,-999.0,-999.0,75,-99.99,,,-99.99,,2013-01-26 21:51:00,
2013-01-26 22:00:00,49.0,47.0,-100.00,North,-999,-999.0,-999.0,92,-99.99,,,-99.99,,2013-01-26 22:00:00,
2013-01-26 22:41:00,49.0,47.0,-100.00,North,-999,-999.0,-999.0,92,-99.99,,,-99.99,,2013-01-26 22:41:00,
2013-01-26 22:51:00,49.0,47.0,-100.00,North,-999,-999.0,-999.0,92,-99.99,,,-99.99,,2013-01-26 22:51:00,
2013-01-26 23:00:00,50.0,49.0,-100.00,North,-999,-999.0,-999.0,97,-99.99,,,-99.99,,2013-01-26 23:00:00,
2013-01-26 23:41:00,50.0,49.0,-100.00,North,-999,-999.0,-999.0,97,-99.99,,,-99.99,,2013-01-26 23:41:00,
2013-01-26 23:51:00,50.0,49.0,-100.00,North,-999,-999.0,-999.0,97,-99.99,,,-99.99,,2013-01-26 23:51:00,